Ceylon — 9VMU6 — position and weather

sailwx.info

Track history (hours):
 
Tides and Currents Weather Stations Pressure Air Temp Water Temp Dewpoint Dewpoint Depression Visibility Wind Speed Wind Dir Waves Ship Positions

Ceylon

Last reported at 2016-Sep-19 09:33 UTC. Time now 2016-Sep-29 16:58 UTC.
Position S 00°17' W 047°31'.
Warning: this ship's position is 10 days out of date.

Length 180 m; draft 7 m.

Type: Tanker. MMSI: 563847000.

Date/timePositionNaut miles runAvg speedWind from/ knotsBaromVisibWave heightAir tempDewpointWater temp
2016-Sep-19 09:33S 00°17' W 047°31'2311.5
2016-Sep-19 07:34S 00°29' W 047°51'1615.6
2016-Sep-19 06:33S 00°34' W 048°06'4013.5
2016-Sep-19 03:33S 01°07' W 048°29'8 8.1
2016-Sep-19 02:33S 01°15' W 048°30'9 4.6
2016-Sep-19 00:33S 01°24' W 048°30'0 0.0
2016-Sep-18 19:33S 01°24' W 048°30'0 0.0
2016-Sep-18 15:33S 01°24' W 048°30'0 0.0
2016-Sep-18 14:33S 01°24' W 048°30'0 0.0
2016-Sep-18 10:32S 01°24' W 048°30'0 0.0
2016-Sep-18 09:33S 01°24' W 048°30'0 0.0
2016-Sep-18 02:32S 01°24' W 048°30'0 0.0
2016-Sep-18 01:32S 01°24' W 048°30'0 0.0
2016-Sep-18 00:32S 01°24' W 048°30'0 0.0
2016-Sep-17 22:32S 01°24' W 048°30'0 0.0
2016-Sep-17 21:32S 01°24' W 048°30'0 0.0
2016-Sep-17 20:26S 01°24' W 048°30'0 0.0
2016-Sep-17 19:14S 01°24' W 048°30'0 0.0
2016-Sep-17 13:32S 01°24' W 048°30'1 1.2
2016-Sep-17 12:33S 01°24' W 048°31'0 0.1
2016-Sep-17 10:33S 01°24' W 048°31'0 0.1
2016-Sep-17 09:33S 01°24' W 048°31'0 0.1
2016-Sep-17 08:33S 01°24' W 048°31'0 0.0
2016-Sep-17 07:33S 01°24' W 048°31'0 0.0
2016-Sep-17 05:33S 01°24' W 048°31'0 0.1
2016-Sep-17 04:32S 01°24' W 048°31'0 0.1
2016-Sep-17 00:32S 01°24' W 048°31'0 0.1
2016-Sep-16 17:31S 01°24' W 048°31'0 0.1
2016-Sep-16 15:32S 01°24' W 048°31'0 0.1
2016-Sep-16 12:33S 01°24' W 048°31'0 0.1
2016-Sep-16 09:33S 01°24' W 048°31'0 0.0
2016-Sep-16 07:33S 01°24' W 048°31'0 0.0
2016-Sep-16 03:33S 01°24' W 048°31'0 0.2
2016-Sep-16 02:33S 01°24' W 048°31'0 0.0
2016-Sep-16 00:30S 01°24' W 048°31'18 9.2
2016-Sep-15 22:34S 01°07' W 048°29'1414.0
2016-Sep-15 21:33S 00°54' W 048°22'1414.1
2016-Sep-15 20:34S 00°42' W 048°15'2814.0
2016-Sep-15 18:34S 00°28' W 047°50'5 0.8
2016-Sep-15 12:31S 00°26' W 047°46'0 0.0
2016-Sep-15 11:28S 00°26' W 047°46'0 0.0
2016-Sep-15 04:31S 00°26' W 047°46'3 2.9
2016-Sep-15 03:33S 00°25' W 047°43'236 9.9
2016-Sep-14 03:33S 02°19' W 044°16'17 3.4
2016-Sep-13 22:30S 02°34' W 044°23'0 0.0
2016-Sep-13 20:30S 02°34' W 044°23'0 0.0
2016-Sep-13 18:33S 02°34' W 044°23'0 0.0
2016-Sep-13 17:24S 02°34' W 044°23'0 0.0
2016-Sep-13 16:33S 02°34' W 044°23'0 0.0
2016-Sep-13 11:27S 02°34' W 044°23'0 0.0
2016-Sep-13 09:30S 02°34' W 044°23'0 0.0
2016-Sep-13 07:33S 02°34' W 044°23'0 0.0
2016-Sep-13 06:33S 02°34' W 044°23'0 0.0
2016-Sep-13 04:33S 02°34' W 044°23'0 0.0
2016-Sep-13 02:30S 02°34' W 044°23'0 0.0
2016-Sep-12 19:06S 02°34' W 044°23'10 6.3
2016-Sep-12 17:27S 02°24' W 044°20'1 0.4
2016-Sep-12 14:33S 02°23' W 044°20'1212.5
2016-Sep-12 13:33S 02°13' W 044°12'1413.1
2016-Sep-12 12:31S 02°02' W 044°05'229 4.7
2016-Sep-10 11:24S 00°14' W 047°28'1113.2
2016-Sep-10 10:33S 00°21' W 047°37'10 9.5
2016-Sep-10 09:33S 00°24' W 047°46'4 4.1
2016-Sep-10 08:33S 00°20' W 047°48'1312.8
2016-Sep-10 07:32S 00°07' W 047°49'175 8.7
2016-Sep-09 11:25N 00°11' W 050°43'1112.6
2016-Sep-09 10:33N 00°10' W 050°54'  
Track history (hours):
 
Tides and Currents Weather Stations Pressure Air Temp Water Temp Dewpoint Dewpoint Depression Visibility Wind Speed Wind Dir Waves Ship Positions

Ceylon

Last reported at 2016-Sep-19 09:33 UTC. Time now 2016-Sep-29 16:58 UTC.
Position S 00°17' W 047°31'.
Warning: this ship's position is 10 days out of date.

Length 180 m; draft 7 m.

Type: Tanker. MMSI: 563847000.

Date/timePositionNaut miles runAvg speedWind from/ knotsBaromVisibWave heightAir tempDewpointWater temp
2016-Sep-19 09:33S 00°17' W 047°31'2311.5
2016-Sep-19 07:34S 00°29' W 047°51'1615.6
2016-Sep-19 06:33S 00°34' W 048°06'4013.5
2016-Sep-19 03:33S 01°07' W 048°29'8 8.1
2016-Sep-19 02:33S 01°15' W 048°30'9 4.6
2016-Sep-19 00:33S 01°24' W 048°30'0 0.0
2016-Sep-18 19:33S 01°24' W 048°30'0 0.0
2016-Sep-18 15:33S 01°24' W 048°30'0 0.0
2016-Sep-18 14:33S 01°24' W 048°30'0 0.0
2016-Sep-18 10:32S 01°24' W 048°30'0 0.0
2016-Sep-18 09:33S 01°24' W 048°30'0 0.0
2016-Sep-18 02:32S 01°24' W 048°30'0 0.0
2016-Sep-18 01:32S 01°24' W 048°30'0 0.0
2016-Sep-18 00:32S 01°24' W 048°30'0 0.0
2016-Sep-17 22:32S 01°24' W 048°30'0 0.0
2016-Sep-17 21:32S 01°24' W 048°30'0 0.0
2016-Sep-17 20:26S 01°24' W 048°30'0 0.0
2016-Sep-17 19:14S 01°24' W 048°30'0 0.0
2016-Sep-17 13:32S 01°24' W 048°30'1 1.2
2016-Sep-17 12:33S 01°24' W 048°31'0 0.1
2016-Sep-17 10:33S 01°24' W 048°31'0 0.1
2016-Sep-17 09:33S 01°24' W 048°31'0 0.1
2016-Sep-17 08:33S 01°24' W 048°31'0 0.0
2016-Sep-17 07:33S 01°24' W 048°31'0 0.0
2016-Sep-17 05:33S 01°24' W 048°31'0 0.1
2016-Sep-17 04:32S 01°24' W 048°31'0 0.1
2016-Sep-17 00:32S 01°24' W 048°31'0 0.1
2016-Sep-16 17:31S 01°24' W 048°31'0 0.1
2016-Sep-16 15:32S 01°24' W 048°31'0 0.1
2016-Sep-16 12:33S 01°24' W 048°31'0 0.1
2016-Sep-16 09:33S 01°24' W 048°31'0 0.0
2016-Sep-16 07:33S 01°24' W 048°31'0 0.0
2016-Sep-16 03:33S 01°24' W 048°31'0 0.2
2016-Sep-16 02:33S 01°24' W 048°31'0 0.0
2016-Sep-16 00:30S 01°24' W 048°31'18 9.2
2016-Sep-15 22:34S 01°07' W 048°29'1414.0
2016-Sep-15 21:33S 00°54' W 048°22'1414.1
2016-Sep-15 20:34S 00°42' W 048°15'2814.0
2016-Sep-15 18:34S 00°28' W 047°50'5 0.8
2016-Sep-15 12:31S 00°26' W 047°46'0 0.0
2016-Sep-15 11:28S 00°26' W 047°46'0 0.0
2016-Sep-15 04:31S 00°26' W 047°46'3 2.9
2016-Sep-15 03:33S 00°25' W 047°43'236 9.9
2016-Sep-14 03:33S 02°19' W 044°16'17 3.4
2016-Sep-13 22:30S 02°34' W 044°23'0 0.0
2016-Sep-13 20:30S 02°34' W 044°23'0 0.0
2016-Sep-13 18:33S 02°34' W 044°23'0 0.0
2016-Sep-13 17:24S 02°34' W 044°23'0 0.0
2016-Sep-13 16:33S 02°34' W 044°23'0 0.0
2016-Sep-13 11:27S 02°34' W 044°23'0 0.0
2016-Sep-13 09:30S 02°34' W 044°23'0 0.0
2016-Sep-13 07:33S 02°34' W 044°23'0 0.0
2016-Sep-13 06:33S 02°34' W 044°23'0 0.0
2016-Sep-13 04:33S 02°34' W 044°23'0 0.0
2016-Sep-13 02:30S 02°34' W 044°23'0 0.0
2016-Sep-12 19:06S 02°34' W 044°23'10 6.3
2016-Sep-12 17:27S 02°24' W 044°20'1 0.4
2016-Sep-12 14:33S 02°23' W 044°20'1212.5
2016-Sep-12 13:33S 02°13' W 044°12'1413.1
2016-Sep-12 12:31S 02°02' W 044°05'229 4.7
2016-Sep-10 11:24S 00°14' W 047°28'1113.2
2016-Sep-10 10:33S 00°21' W 047°37'10 9.5
2016-Sep-10 09:33S 00°24' W 047°46'4 4.1
2016-Sep-10 08:33S 00°20' W 047°48'1312.8
2016-Sep-10 07:32S 00°07' W 047°49'175 8.7
2016-Sep-09 11:25N 00°11' W 050°43'1112.6
2016-Sep-09 10:33N 00°10' W 050°54'  

Dump ship's entire track history